createdAt,value
2023-02-27T00:00:48.560Z,96632.00
2023-02-27T00:04:58.265Z,96626.00
2023-02-27T00:09:03.681Z,96625.00
2023-02-27T00:13:12.826Z,96634.00
2023-02-27T00:17:15.915Z,96635.00
2023-02-27T00:21:20.836Z,96624.00
2023-02-27T00:25:26.536Z,96628.00
2023-02-27T00:29:31.650Z,96623.00
2023-02-27T00:33:37.655Z,96619.00
2023-02-27T00:37:42.566Z,96625.00
2023-02-27T00:41:45.547Z,96626.00
2023-02-27T00:45:49.237Z,96621.00
2023-02-27T00:49:53.496Z,96625.00
2023-02-27T00:53:57.923Z,96633.00
2023-02-27T00:58:01.068Z,96621.00
2023-02-27T01:02:04.166Z,96621.00
2023-02-27T01:06:09.414Z,96634.00
2023-02-27T01:10:14.415Z,96638.00
2023-02-27T01:14:22.940Z,96637.00
2023-02-27T01:18:26.199Z,96640.00
2023-02-27T01:22:29.223Z,96640.00
2023-02-27T01:26:33.870Z,96632.00
2023-02-27T01:30:36.963Z,96635.00
2023-02-27T01:34:42.565Z,96636.00
2023-02-27T01:38:45.661Z,96635.00
2023-02-27T01:42:55.932Z,96634.00
2023-02-27T01:46:59.938Z,96633.00
2023-02-27T01:51:08.208Z,96638.00
2023-02-27T01:55:14.526Z,96641.00
2023-02-27T01:59:19.819Z,96634.00
2023-02-27T02:03:31.772Z,96635.00
2023-02-27T02:07:38.610Z,96640.00
2023-02-27T02:11:42.942Z,96641.00
2023-02-27T02:15:54.863Z,96648.00
2023-02-27T02:20:35.229Z,96643.00
2023-02-27T02:25:18.962Z,96646.00
2023-02-27T02:30:05.550Z,96658.00
2023-02-27T02:34:42.203Z,96661.00
2023-02-27T02:39:18.649Z,96660.00
2023-02-27T02:43:29.529Z,96655.00
2023-02-27T02:47:46.708Z,96654.00
2023-02-27T02:51:54.660Z,96658.00
2023-02-27T02:56:05.998Z,96667.00
2023-02-27T03:00:15.926Z,96661.00
2023-02-27T03:04:28.284Z,96667.00
2023-02-27T03:08:35.497Z,96665.00
2023-02-27T03:12:46.303Z,96661.00
2023-02-27T03:16:53.360Z,96668.00
2023-02-27T03:20:59.436Z,96666.00
2023-02-27T03:25:05.540Z,96663.00
2023-02-27T03:29:13.749Z,96672.00
2023-02-27T03:33:24.253Z,96670.00
2023-02-27T03:37:43.157Z,96653.00
2023-02-27T03:41:53.150Z,96657.00
2023-02-27T03:46:05.750Z,96668.00
2023-02-27T03:50:10.423Z,96663.00
2023-02-27T03:54:16.578Z,96667.00
2023-02-27T03:58:20.864Z,96669.00
2023-02-27T04:02:30.108Z,96675.00
2023-02-27T04:06:57.483Z,96673.00
2023-02-27T04:11:33.550Z,96669.00
2023-02-27T04:15:48.231Z,96673.00
2023-02-27T04:20:25.880Z,96681.00
2023-02-27T04:24:39.129Z,96684.00
2023-02-27T04:28:51.449Z,96685.00
2023-02-27T04:33:02.265Z,96686.00
2023-02-27T04:37:11.108Z,96684.00
2023-02-27T04:41:20.102Z,96675.00
2023-02-27T04:45:26.085Z,96680.00
2023-02-27T04:49:33.696Z,96694.00
2023-02-27T04:53:46.716Z,96696.00
2023-02-27T04:57:53.490Z,96702.00
2023-02-27T05:02:04.205Z,96710.00
2023-02-27T05:06:10.390Z,96705.00
2023-02-27T05:10:22.281Z,96704.00
2023-02-27T05:14:31.961Z,96700.00
2023-02-27T05:18:35.144Z,96703.00
2023-02-27T05:22:47.541Z,96699.00
2023-02-27T05:27:12.059Z,96693.00
2023-02-27T05:31:22.976Z,96701.00
2023-02-27T05:35:36.872Z,96701.00
2023-02-27T05:39:47.451Z,96702.00
2023-02-27T05:43:55.510Z,96711.00
2023-02-27T05:48:10.533Z,96722.00
2023-02-27T05:52:17.948Z,96709.00
2023-02-27T05:56:26.286Z,96714.00
2023-02-27T06:00:40.916Z,96727.00
2023-02-27T06:04:47.567Z,96723.00
2023-02-27T06:08:50.851Z,96723.00
2023-02-27T06:12:55.753Z,96729.00
2023-02-27T06:17:00.236Z,96734.00
2023-02-27T06:21:06.248Z,96727.00
2023-02-27T06:25:10.523Z,96727.00
2023-02-27T06:29:13.549Z,96732.00
2023-02-27T06:33:17.982Z,96736.00
2023-02-27T06:37:23.429Z,96732.00
2023-02-27T06:41:26.855Z,96740.00
2023-02-27T06:45:30.245Z,96741.00
2023-02-27T06:49:36.692Z,96746.00
2023-02-27T06:53:42.921Z,96746.00
2023-02-27T06:57:46.518Z,96747.00
2023-02-27T07:01:50.157Z,96740.00
2023-02-27T07:05:54.585Z,96741.00
2023-02-27T07:09:57.882Z,96756.00
2023-02-27T07:14:05.368Z,96765.00
2023-02-27T07:18:14.063Z,96769.00
2023-02-27T07:22:21.209Z,96767.00
2023-02-27T07:26:24.239Z,96781.00
2023-02-27T07:30:27.379Z,96772.00
2023-02-27T07:34:30.727Z,96773.00
2023-02-27T07:38:37.952Z,96773.00
2023-02-27T07:42:40.974Z,96782.00
2023-02-27T07:46:44.808Z,96787.00
2023-02-27T07:50:47.976Z,96786.00
2023-02-27T07:54:54.912Z,96781.00
2023-02-27T07:58:58.164Z,96789.00
2023-02-27T08:03:02.852Z,96791.00
2023-02-27T08:07:06.406Z,96792.00
2023-02-27T08:11:16.112Z,96795.00
2023-02-27T08:15:19.230Z,96790.00
2023-02-27T08:19:23.692Z,96802.00
2023-02-27T08:23:26.935Z,96807.00
2023-02-27T08:27:31.712Z,96817.00
2023-02-27T08:31:34.750Z,96816.00
2023-02-27T08:35:38.335Z,96815.00
2023-02-27T08:39:44.712Z,96816.00
2023-02-27T08:43:49.625Z,96818.00
2023-02-27T08:47:52.690Z,96825.00
2023-02-27T08:51:58.906Z,96817.00
2023-02-27T08:56:02.233Z,96825.00
2023-02-27T09:00:10.880Z,96820.00
2023-02-27T09:04:16.767Z,96827.00
2023-02-27T09:08:20.009Z,96836.00
2023-02-27T09:12:26.310Z,96842.00
2023-02-27T09:16:31.962Z,96844.00
2023-02-27T09:20:36.453Z,96843.00
2023-02-27T09:24:39.774Z,96838.00
2023-02-27T09:28:42.893Z,96863.00
2023-02-27T09:32:52.734Z,96828.00
2023-02-27T09:36:55.765Z,96856.00
2023-02-27T09:41:02.263Z,96866.00
2023-02-27T09:45:07.806Z,96865.00
2023-02-27T09:49:21.212Z,96859.00
2023-02-27T09:53:31.651Z,96859.00
2023-02-27T09:57:46.678Z,96866.00
2023-02-27T10:01:54.556Z,96876.00
2023-02-27T10:06:22.838Z,96875.00
2023-02-27T10:10:33.048Z,96885.00
2023-02-27T10:14:42.566Z,96881.00
2023-02-27T10:18:54.681Z,96888.00
2023-02-27T10:23:16.143Z,96900.00
2023-02-27T10:27:22.696Z,96892.00
2023-02-27T10:31:32.496Z,96889.00
2023-02-27T10:35:38.482Z,96895.00
2023-02-27T10:39:47.935Z,96908.00
2023-02-27T10:43:53.774Z,96913.00
2023-02-27T10:47:56.813Z,96908.00
2023-02-27T10:52:09.515Z,96901.00
2023-02-27T10:56:19.189Z,96897.00
2023-02-27T11:00:43.760Z,96912.00
2023-02-27T11:04:54.757Z,96898.00
2023-02-27T11:09:21.507Z,96901.00
2023-02-27T11:13:29.120Z,96895.00
2023-02-27T11:17:35.811Z,96889.00
2023-02-27T11:21:40.199Z,96891.00
2023-02-27T11:25:46.669Z,96886.00
2023-02-27T11:29:59.961Z,96889.00
2023-02-27T11:34:07.367Z,96888.00
2023-02-27T11:38:26.374Z,96873.00
2023-02-27T11:42:32.831Z,96869.00
2023-02-27T11:46:48.523Z,96873.00
2023-02-27T11:51:22.578Z,96870.00
2023-02-27T11:55:30.875Z,96872.00
2023-02-27T11:59:43.917Z,96869.00
2023-02-27T12:03:59.156Z,96865.00
2023-02-27T12:08:06.984Z,96870.00
2023-02-27T12:12:20.333Z,96872.00
2023-02-27T12:16:32.282Z,96862.00
2023-02-27T12:20:52.885Z,96868.00
2023-02-27T12:25:03.977Z,96855.00
2023-02-27T12:29:20.029Z,96863.00
2023-02-27T12:33:33.781Z,96852.00
2023-02-27T12:37:42.040Z,96856.00
2023-02-27T12:42:05.387Z,96852.00
2023-02-27T12:46:30.644Z,96854.00
2023-02-27T12:50:50.891Z,96857.00
2023-02-27T12:55:04.690Z,96852.00
2023-02-27T12:59:22.940Z,96864.00
2023-02-27T13:03:34.637Z,96858.00
2023-02-27T13:07:50.636Z,96852.00
2023-02-27T13:12:03.689Z,96849.00
2023-02-27T13:16:14.903Z,96846.00
2023-02-27T13:20:29.486Z,96855.00
2023-02-27T13:24:34.393Z,96844.00
2023-02-27T13:28:40.619Z,96832.00
2023-02-27T13:32:54.629Z,96837.00
2023-02-27T13:37:02.301Z,96840.00
2023-02-27T13:41:39.723Z,96838.00
2023-02-27T13:45:58.481Z,96842.00
2023-02-27T13:50:03.201Z,96857.00
2023-02-27T13:54:19.695Z,96843.00
2023-02-27T13:58:26.145Z,96842.00
2023-02-27T14:02:49.440Z,96837.00
2023-02-27T14:07:04.972Z,96851.00
2023-02-27T14:11:19.074Z,96843.00
2023-02-27T14:15:56.425Z,96846.00
2023-02-27T14:20:01.215Z,96848.00
2023-02-27T14:24:10.661Z,96842.00
2023-02-27T14:28:22.734Z,96848.00
2023-02-27T14:32:31.387Z,96843.00
2023-02-27T14:36:42.049Z,96841.00
2023-02-27T14:41:06.499Z,96846.00
2023-02-27T14:45:16.066Z,96842.00
2023-02-27T14:49:22.832Z,96845.00
2023-02-27T14:53:33.058Z,96848.00
2023-02-27T14:57:36.058Z,96855.00
2023-02-27T15:01:41.432Z,96847.00
2023-02-27T15:05:45.848Z,96847.00
2023-02-27T15:09:50.385Z,96847.00
2023-02-27T15:13:59.324Z,96848.00
2023-02-27T15:18:02.307Z,96864.00
2023-02-27T15:22:36.117Z,96861.00
2023-02-27T15:26:48.880Z,96858.00
2023-02-27T15:30:59.899Z,96855.00
2023-02-27T15:35:05.630Z,96864.00
2023-02-27T15:39:17.108Z,96860.00
2023-02-27T15:43:27.349Z,96863.00
2023-02-27T15:47:34.553Z,96862.00
2023-02-27T15:51:38.836Z,96865.00
2023-02-27T15:55:44.330Z,96874.00
2023-02-27T15:59:50.600Z,96874.00
2023-02-27T16:03:55.570Z,96878.00
2023-02-27T16:07:58.708Z,96878.00
2023-02-27T16:12:25.688Z,96885.00
2023-02-27T16:16:40.599Z,96895.00
2023-02-27T16:20:45.263Z,96895.00
2023-02-27T16:24:49.608Z,96897.00
2023-02-27T16:28:55.554Z,96901.00
2023-02-27T16:33:03.957Z,96908.00
2023-02-27T16:37:08.124Z,96903.00
2023-02-27T16:41:19.454Z,96901.00
2023-02-27T16:45:24.911Z,96908.00
2023-02-27T16:49:33.206Z,96912.00
2023-02-27T16:53:37.072Z,96917.00
2023-02-27T16:57:43.024Z,96922.00
2023-02-27T17:01:49.707Z,96933.00
2023-02-27T17:05:54.217Z,96928.00
2023-02-27T17:09:57.466Z,96936.00
2023-02-27T17:14:02.676Z,96938.00
2023-02-27T17:18:09.127Z,96943.00
2023-02-27T17:22:16.977Z,96943.00
2023-02-27T17:26:20.140Z,96948.00
2023-02-27T17:30:27.153Z,96953.00
2023-02-27T17:34:36.885Z,96957.00
2023-02-27T17:38:41.401Z,96957.00
2023-02-27T17:42:45.528Z,96956.00
2023-02-27T17:46:50.553Z,96971.00
2023-02-27T17:50:54.915Z,96961.00
2023-02-27T17:54:59.827Z,96969.00
2023-02-27T17:59:03.580Z,96973.00
2023-02-27T18:03:07.054Z,96972.00
2023-02-27T18:07:11.919Z,96977.00
2023-02-27T18:11:20.834Z,96982.00
2023-02-27T18:15:24.365Z,96984.00
2023-02-27T18:19:32.380Z,96986.00
2023-02-27T18:23:41.285Z,96983.00
2023-02-27T18:27:48.420Z,96977.00
2023-02-27T18:31:53.676Z,96990.00
2023-02-27T18:35:57.031Z,96989.00
2023-02-27T18:40:03.515Z,96996.00
2023-02-27T18:44:09.065Z,96988.00
2023-02-27T18:48:14.692Z,96987.00
2023-02-27T18:52:21.546Z,96989.00
2023-02-27T18:56:26.498Z,97003.00
2023-02-27T19:00:33.003Z,97008.00
2023-02-27T19:04:38.129Z,97014.00
2023-02-27T19:08:41.287Z,97006.00
2023-02-27T19:12:44.546Z,96999.00
2023-02-27T19:16:52.977Z,97002.00
2023-02-27T19:20:58.961Z,97012.00
2023-02-27T19:25:04.693Z,97008.00
2023-02-27T19:29:11.481Z,97006.00
2023-02-27T19:33:20.623Z,97018.00
2023-02-27T19:37:23.808Z,97011.00
2023-02-27T19:41:27.086Z,97013.00
2023-02-27T19:45:30.579Z,97016.00
2023-02-27T19:49:35.682Z,97012.00
2023-02-27T19:53:48.409Z,97017.00
2023-02-27T19:57:59.824Z,97017.00
2023-02-27T20:02:02.983Z,97011.00
2023-02-27T20:06:15.515Z,97013.00
2023-02-27T20:10:21.372Z,97022.00
2023-02-27T20:14:24.872Z,97016.00
2023-02-27T20:18:29.907Z,97012.00
2023-02-27T20:22:34.543Z,97008.00
2023-02-27T20:26:40.524Z,97009.00
2023-02-27T20:30:44.564Z,97004.00
2023-02-27T20:34:48.080Z,97006.00
2023-02-27T20:38:52.678Z,97006.00
2023-02-27T20:42:57.697Z,97001.00
2023-02-27T20:47:03.822Z,97008.00
2023-02-27T20:51:11.031Z,97007.00
2023-02-27T20:55:17.942Z,97000.00
2023-02-27T20:59:25.940Z,97010.00
2023-02-27T21:03:36.226Z,96992.00
2023-02-27T21:07:45.891Z,96996.00
2023-02-27T21:11:50.378Z,96988.00
2023-02-27T21:15:53.824Z,97000.00
2023-02-27T21:19:56.869Z,96993.00
2023-02-27T21:24:00.691Z,96990.00
2023-02-27T21:28:06.577Z,96983.00
2023-02-27T21:32:09.767Z,96976.00
2023-02-27T21:36:13.521Z,96976.00
2023-02-27T21:40:19.036Z,96971.00
2023-02-27T21:44:26.432Z,96964.00
2023-02-27T21:48:30.400Z,96962.00
2023-02-27T21:52:36.257Z,96958.00
2023-02-27T21:56:42.994Z,96954.00
2023-02-27T22:00:50.574Z,96958.00
2023-02-27T22:04:56.565Z,96954.00
2023-02-27T22:09:01.508Z,96954.00
2023-02-27T22:13:05.868Z,96954.00
2023-02-27T22:17:13.932Z,96952.00
2023-02-27T22:21:20.108Z,96959.00
2023-02-27T22:25:25.934Z,96948.00
2023-02-27T22:29:32.808Z,96955.00
2023-02-27T22:33:39.874Z,96954.00
2023-02-27T22:37:42.929Z,96961.00
2023-02-27T22:41:47.222Z,96966.00
2023-02-27T22:45:50.509Z,96957.00
2023-02-27T22:49:54.938Z,96955.00
2023-02-27T22:53:59.578Z,96955.00
2023-02-27T22:58:03.131Z,96948.00
2023-02-27T23:02:09.034Z,96956.00
2023-02-27T23:06:18.824Z,96953.00
2023-02-27T23:10:23.932Z,96953.00
2023-02-27T23:14:29.414Z,96948.00
2023-02-27T23:18:32.576Z,96949.00
2023-02-27T23:22:39.675Z,96948.00
2023-02-27T23:26:44.696Z,96943.00
2023-02-27T23:30:47.975Z,96946.00
2023-02-27T23:34:51.057Z,96944.00
2023-02-27T23:38:57.145Z,96943.00
2023-02-27T23:43:02.395Z,96941.00
2023-02-27T23:47:05.890Z,96944.00
2023-02-27T23:51:10.867Z,96936.00
2023-02-27T23:55:18.385Z,96932.00
2023-02-27T23:59:24.528Z,96931.00
